Pagina principale
METAR-TAF:

METAR-TAF

Aeroporti :

Montichiari

Brescia, Italia

latitudine: 45-24-02N, longitudine: 010-18-59E, altezza: 104 m

Osservazione

Il bollettino è stato emesso 18 minuti fa, alle 00:20 UTC
Vento 6 kt da ovest
Temperature 18°C
Umidità 88%
Pressione 1015 hPa
Visibilità 10 km o più
pioggia debole,

METAR: LIPO 280020Z AUTO 27006KT 9999 -RA BKN052/// 18/16 Q1015

Ora: 02:38 (00:38 UTC)

Previsione

Il bollettino è stato emesso 1 ora e 38 minuti fa, alle 23:00 UTC
Previsione valida dal 28 alle 00 UTC al 28 alle 24 UTC
Vento 5 kt da direzioni variabili
Visibilità 10 km o più
Nubi sparse ad un'altezza di 4000 ft
Temporaneamente
dal 28 alle 00 UTC al 28 alle 06 UTC
rovesci di pioggia
Temporaneamente
dal 28 alle 10 UTC al 28 alle 15 UTC
temporale, pioggia,

TAF: LIPO 272300Z 2800/2824 VRB05KT 9999 SCT040 TEMPO 2800/2806 SHRA TEMPO 2810/2815 TSRA

Osservazioni e previsioni meteorologiche di più di 4000 aeroporti (messaggi METAR e TAF).

Le stazioni disponibili sono rappresentate dai dischi gialli e rossi sulla carta.

Puntare il mouse per vedere il nome della stazione.

Clicca sopra per visualizzare le osservazioni e previsioni meteorologiche.

Per cambiare la mappa : fare clic sui pulsanti verdi con una croce nera per ingrandire, il pulsante verde con un trattino per diminuire, o sulla freccia verde per le mappe adiacenti.


METAR-TAF: